createdAt,value
2022-11-04T00:01:06.934Z,9.16
2022-11-04T00:03:37.497Z,9.16
2022-11-04T00:06:08.459Z,9.18
2022-11-04T00:08:38.889Z,9.20
2022-11-04T00:11:28.605Z,9.27
2022-11-04T00:13:59.087Z,9.25
2022-11-04T00:16:47.560Z,9.26
2022-11-04T00:19:18.207Z,9.36
2022-11-04T00:22:06.966Z,9.30
2022-11-04T00:24:44.844Z,9.31
2022-11-04T00:27:35.981Z,9.26
2022-11-04T00:30:10.112Z,9.28
2022-11-04T00:32:58.424Z,9.22
2022-11-04T00:35:28.766Z,9.20
2022-11-04T00:37:59.227Z,9.21
2022-11-04T00:40:29.588Z,9.20
2022-11-04T00:42:59.996Z,9.19
2022-11-04T00:45:30.384Z,9.15
2022-11-04T00:48:00.708Z,9.16
2022-11-04T00:50:31.130Z,9.12
2022-11-04T00:53:03.063Z,9.20
2022-11-04T00:55:33.465Z,9.06
2022-11-04T00:58:03.851Z,9.04
2022-11-04T01:00:34.308Z,8.97
2022-11-04T01:03:04.747Z,9.03
2022-11-04T01:05:36.588Z,8.97
2022-11-04T01:08:07.251Z,8.96
2022-11-04T01:10:39.773Z,9.00
2022-11-04T01:13:10.560Z,9.01
2022-11-04T01:15:41.422Z,8.92
2022-11-04T01:18:12.366Z,8.91
2022-11-04T01:20:42.765Z,8.90
2022-11-04T01:23:13.171Z,8.87
2022-11-04T01:25:43.525Z,8.89
2022-11-04T01:28:13.955Z,8.90
2022-11-04T01:30:44.325Z,8.86
2022-11-04T01:33:14.739Z,8.88
2022-11-04T01:35:45.233Z,8.84
2022-11-04T01:38:15.675Z,8.86
2022-11-04T01:40:46.043Z,8.86
2022-11-04T01:43:19.520Z,8.88
2022-11-04T01:45:55.440Z,8.83
2022-11-04T01:48:31.795Z,8.84
2022-11-04T01:51:02.480Z,8.86
2022-11-04T01:53:38.723Z,8.86
2022-11-04T01:56:12.426Z,8.90
2022-11-04T01:58:45.925Z,8.88
2022-11-04T02:01:16.746Z,8.78
2022-11-04T02:03:56.396Z,8.82
2022-11-04T02:06:26.861Z,8.88
2022-11-04T02:08:57.317Z,8.84
2022-11-04T02:11:45.613Z,8.80
2022-11-04T02:14:15.944Z,8.83
2022-11-04T02:16:48.534Z,8.87
2022-11-04T02:19:46.117Z,8.90
2022-11-04T02:22:44.148Z,8.88
2022-11-04T02:25:23.270Z,8.88
2022-11-04T02:28:02.676Z,8.85
2022-11-04T02:30:39.124Z,8.81
2022-11-04T02:33:24.437Z,8.81
2022-11-04T02:36:00.829Z,8.83
2022-11-04T02:38:46.277Z,8.87
2022-11-04T02:41:19.601Z,8.73
2022-11-04T02:43:55.763Z,8.70
2022-11-04T02:46:31.705Z,8.77
2022-11-04T02:49:05.470Z,8.74
2022-11-04T02:51:38.876Z,8.72
2022-11-04T02:54:15.748Z,8.66
2022-11-04T02:56:50.006Z,8.65
2022-11-04T02:59:30.873Z,8.70
2022-11-04T03:02:04.393Z,8.65
2022-11-04T03:04:39.379Z,8.71
2022-11-04T03:07:12.993Z,8.72
2022-11-04T03:09:47.865Z,8.76
2022-11-04T03:12:21.257Z,8.84
2022-11-04T03:14:57.706Z,8.86
2022-11-04T03:17:35.860Z,8.88
2022-11-04T03:20:09.557Z,8.90
2022-11-04T03:22:40.320Z,8.91
2022-11-04T03:25:11.716Z,9.02
2022-11-04T03:27:51.272Z,9.10
2022-11-04T03:30:24.423Z,8.96
2022-11-04T03:33:10.293Z,8.94
2022-11-04T03:35:40.968Z,8.98
2022-11-04T03:38:11.521Z,8.93
2022-11-04T03:40:42.309Z,9.02
2022-11-04T03:43:16.425Z,9.02
2022-11-04T03:45:46.856Z,9.01
2022-11-04T03:48:17.448Z,8.95
2022-11-04T03:50:49.609Z,9.14
2022-11-04T03:53:23.024Z,8.99
2022-11-04T03:56:05.820Z,9.10
2022-11-04T03:58:48.367Z,9.10
2022-11-04T04:01:24.935Z,9.16
2022-11-04T04:04:04.342Z,9.04
2022-11-04T04:06:37.350Z,9.08
2022-11-04T04:09:10.812Z,9.06
2022-11-04T04:11:44.423Z,9.09
2022-11-04T04:14:41.659Z,9.18
2022-11-04T04:17:30.261Z,9.18
2022-11-04T04:20:06.423Z,9.11
2022-11-04T04:22:39.882Z,9.18
2022-11-04T04:25:30.970Z,8.98
2022-11-04T04:28:04.074Z,9.04
2022-11-04T04:30:35.390Z,9.08
2022-11-04T04:33:17.593Z,9.05
2022-11-04T04:35:51.057Z,9.04
2022-11-04T04:38:42.059Z,9.04
2022-11-04T04:41:42.639Z,9.06
2022-11-04T04:44:46.301Z,9.14
2022-11-04T04:47:21.387Z,9.10
2022-11-04T04:49:56.953Z,9.08
2022-11-04T04:52:36.180Z,9.10
2022-11-04T04:55:07.424Z,9.06
2022-11-04T04:57:37.866Z,9.10
2022-11-04T05:00:10.728Z,9.13
2022-11-04T05:02:41.194Z,9.04
2022-11-04T05:05:13.458Z,9.12
2022-11-04T05:07:44.291Z,9.12
2022-11-04T05:10:16.173Z,9.13
2022-11-04T05:13:04.574Z,9.13
2022-11-04T05:15:35.865Z,9.12
2022-11-04T05:18:06.657Z,9.11
2022-11-04T05:20:39.184Z,9.14
2022-11-04T05:23:12.129Z,9.10
2022-11-04T05:28:08.295Z,9.14
2022-11-04T05:30:38.888Z,9.12
2022-11-04T05:33:09.455Z,9.15
2022-11-04T05:35:39.921Z,9.17
2022-11-04T05:38:10.778Z,9.18
2022-11-04T05:40:41.242Z,9.20
2022-11-04T05:43:11.759Z,9.19
2022-11-04T05:45:42.326Z,9.18
2022-11-04T05:48:12.755Z,9.26
2022-11-04T05:50:43.705Z,9.28
2022-11-04T05:53:14.121Z,9.22
2022-11-04T05:55:44.611Z,9.23
2022-11-04T05:58:15.216Z,9.23
2022-11-04T06:00:45.640Z,9.20
2022-11-04T06:03:16.573Z,9.20
2022-11-04T06:05:47.091Z,9.21
2022-11-04T06:08:17.486Z,9.24
2022-11-04T06:10:48.040Z,9.24
2022-11-04T06:13:18.379Z,9.20
2022-11-04T06:15:48.863Z,9.26
2022-11-04T06:18:19.280Z,9.29
2022-11-04T06:20:49.684Z,9.29
2022-11-04T06:23:20.043Z,9.24
2022-11-04T06:25:51.970Z,9.27
2022-11-04T06:28:22.399Z,9.29
2022-11-04T06:30:52.826Z,9.32
2022-11-04T06:33:23.227Z,9.34
2022-11-04T06:35:55.200Z,9.39
2022-11-04T06:38:25.804Z,9.34
2022-11-04T06:40:56.246Z,9.40
2022-11-04T06:43:26.879Z,9.48
2022-11-04T06:45:58.801Z,9.48
2022-11-04T06:48:33.562Z,9.52
2022-11-04T06:51:04.032Z,9.57
2022-11-04T06:53:34.453Z,9.62
2022-11-04T06:56:06.741Z,9.64
2022-11-04T06:58:37.245Z,9.68
2022-11-04T07:01:14.614Z,9.73
2022-11-04T07:03:39.785Z,9.80
2022-11-04T07:06:10.940Z,9.78
2022-11-04T07:08:41.333Z,9.80
2022-11-04T07:11:12.273Z,9.89
2022-11-04T07:13:42.806Z,9.86
2022-11-04T07:16:14.541Z,9.73
2022-11-04T07:18:45.022Z,9.84
2022-11-04T07:21:15.670Z,9.85
2022-11-04T07:23:46.077Z,9.77
2022-11-04T07:26:16.470Z,9.67
2022-11-04T07:28:47.311Z,9.70
2022-11-04T07:31:18.584Z,9.69
2022-11-04T07:33:50.624Z,9.76
2022-11-04T07:36:21.370Z,9.80
2022-11-04T07:38:51.773Z,9.77
2022-11-04T07:41:22.685Z,9.88
2022-11-04T07:43:54.906Z,10.00
2022-11-04T07:46:25.315Z,10.05
2022-11-04T07:48:58.866Z,10.02
2022-11-04T07:51:31.546Z,10.07
2022-11-04T07:54:02.113Z,10.08
2022-11-04T07:56:32.579Z,10.15
2022-11-04T07:59:02.882Z,10.26
2022-11-04T08:01:33.211Z,10.30
2022-11-04T08:04:05.056Z,10.26
2022-11-04T08:06:35.373Z,10.32
2022-11-04T08:09:05.730Z,10.34
2022-11-04T08:11:36.159Z,10.40
2022-11-04T08:14:06.562Z,10.47
2022-11-04T08:16:36.948Z,10.40
2022-11-04T08:19:07.617Z,10.54
2022-11-04T08:21:38.065Z,10.52
2022-11-04T08:24:08.734Z,10.72
2022-11-04T08:26:39.090Z,10.57
2022-11-04T08:29:09.927Z,10.60
2022-11-04T08:31:41.934Z,10.58
2022-11-04T08:34:12.346Z,10.63
2022-11-04T08:36:42.750Z,10.64
2022-11-04T08:39:13.814Z,10.64
2022-11-04T08:41:45.328Z,10.74
2022-11-04T08:44:16.388Z,10.86
2022-11-04T08:46:47.651Z,10.66
2022-11-04T08:49:21.294Z,10.77
2022-11-04T08:51:52.174Z,10.72
2022-11-04T08:54:23.322Z,10.93
2022-11-04T08:56:54.668Z,10.85
2022-11-04T08:59:25.181Z,10.83
2022-11-04T09:01:55.782Z,10.78
2022-11-04T09:04:26.357Z,10.88
2022-11-04T09:06:57.309Z,10.72
2022-11-04T09:09:27.718Z,10.72
2022-11-04T09:11:58.101Z,10.78
2022-11-04T09:14:29.077Z,10.82
2022-11-04T09:17:00.978Z,10.86
2022-11-04T09:19:32.487Z,10.88
2022-11-04T09:22:02.959Z,10.90
2022-11-04T09:24:33.358Z,10.90
2022-11-04T09:27:05.335Z,10.99
2022-11-04T09:29:36.420Z,11.06
2022-11-04T09:32:08.022Z,11.20
2022-11-04T09:34:38.371Z,11.26
2022-11-04T09:37:08.759Z,11.33
2022-11-04T09:39:39.302Z,11.23
2022-11-04T09:42:29.317Z,11.21
2022-11-04T09:45:22.968Z,11.23
2022-11-04T09:47:40.992Z,11.16
2022-11-04T09:50:14.439Z,11.15
2022-11-04T09:52:47.935Z,11.26
2022-11-04T09:55:33.333Z,11.26
2022-11-04T09:58:03.953Z,11.33
2022-11-04T10:00:37.203Z,11.63
2022-11-04T10:03:20.164Z,11.76
2022-11-04T10:05:59.406Z,11.54
2022-11-04T10:08:41.915Z,11.43
2022-11-04T10:11:17.920Z,11.33
2022-11-04T10:14:08.252Z,11.14
2022-11-04T10:17:12.051Z,11.13
2022-11-04T10:20:22.291Z,11.14
2022-11-04T10:23:01.383Z,11.14
2022-11-04T10:25:37.777Z,11.28
2022-11-04T10:28:11.251Z,11.30
2022-11-04T10:30:44.103Z,11.28
2022-11-04T10:33:27.736Z,11.15
2022-11-04T10:36:01.238Z,11.23
2022-11-04T10:38:46.686Z,11.23
2022-11-04T10:41:35.055Z,11.16
2022-11-04T10:44:25.225Z,11.12
2022-11-04T10:47:18.639Z,11.34
2022-11-04T10:50:27.205Z,11.22
2022-11-04T10:52:31.711Z,11.16
2022-11-04T10:55:03.037Z,11.32
2022-11-04T10:57:33.659Z,11.41
2022-11-04T11:00:06.835Z,11.46
2022-11-04T11:02:45.978Z,11.24
2022-11-04T11:05:22.446Z,11.34
2022-11-04T11:07:55.772Z,11.19
2022-11-04T11:10:28.611Z,11.05
2022-11-04T11:13:06.225Z,11.02
2022-11-04T11:15:39.062Z,11.02
2022-11-04T11:18:15.498Z,10.99
2022-11-04T11:20:51.505Z,11.06
2022-11-04T11:23:37.149Z,11.15
2022-11-04T11:26:10.878Z,11.22
2022-11-04T11:28:42.601Z,11.20
2022-11-04T11:31:16.745Z,11.21
2022-11-04T11:33:53.285Z,11.38
2022-11-04T11:36:33.154Z,11.23
2022-11-04T11:39:16.311Z,11.20
2022-11-04T11:42:06.543Z,11.20
2022-11-04T11:44:47.654Z,11.10
2022-11-04T11:47:30.176Z,11.28
2022-11-04T11:50:09.638Z,11.12
2022-11-04T11:52:40.950Z,11.05
2022-11-04T11:55:20.351Z,11.06
2022-11-04T12:00:52.008Z,11.03
2022-11-04T12:03:31.124Z,11.06
2022-11-04T12:06:22.272Z,11.01
2022-11-04T12:11:51.973Z,11.14
2022-11-04T12:14:51.345Z,11.08
2022-11-04T12:17:53.857Z,10.98
2022-11-04T12:20:27.275Z,11.08
2022-11-04T12:23:03.798Z,11.13
2022-11-04T12:25:37.752Z,11.23
2022-11-04T12:28:11.234Z,11.26
2022-11-04T12:31:03.681Z,11.27
2022-11-04T12:33:52.069Z,11.24
2022-11-04T12:36:28.551Z,11.18
2022-11-04T12:39:08.909Z,11.42
2022-11-04T12:42:20.640Z,11.20
2022-11-04T12:44:43.039Z,11.18
2022-11-04T12:47:40.317Z,11.09
2022-11-04T12:50:34.490Z,11.08
2022-11-04T12:53:39.828Z,11.12
2022-11-04T12:56:21.043Z,11.08
2022-11-04T12:59:27.938Z,11.05
2022-11-04T13:02:04.964Z,11.06
2022-11-04T13:04:39.011Z,11.09
2022-11-04T13:07:18.132Z,11.27
2022-11-04T13:10:00.737Z,11.08
2022-11-04T13:12:34.180Z,11.09
2022-11-04T13:15:08.052Z,11.34
2022-11-04T13:17:40.972Z,11.42
2022-11-04T13:20:17.559Z,11.23
2022-11-04T13:22:50.633Z,11.12
2022-11-04T13:25:27.128Z,11.05
2022-11-04T13:28:00.233Z,11.06
2022-11-04T13:30:46.069Z,11.12
2022-11-04T13:33:40.279Z,11.12
2022-11-04T13:36:30.503Z,11.06
2022-11-04T13:39:09.880Z,10.88
2022-11-04T13:41:43.377Z,10.89
2022-11-04T13:44:16.868Z,10.78
2022-11-04T13:46:53.543Z,10.73
2022-11-04T13:49:28.211Z,10.87
2022-11-04T13:52:10.454Z,10.85
2022-11-04T13:54:57.099Z,10.85
2022-11-04T13:57:31.306Z,10.92
2022-11-04T14:00:16.760Z,10.86
2022-11-04T14:02:48.434Z,10.98
2022-11-04T14:05:35.543Z,10.95
2022-11-04T14:08:09.039Z,10.86
2022-11-04T14:10:54.693Z,11.06
2022-11-04T14:13:34.999Z,10.99
2022-11-04T14:16:26.346Z,11.04
2022-11-04T14:18:56.761Z,11.12
2022-11-04T14:21:29.405Z,11.24
2022-11-04T14:24:00.935Z,11.25
2022-11-04T14:26:43.265Z,11.45
2022-11-04T14:29:25.122Z,11.52
2022-11-04T14:31:58.675Z,11.38
2022-11-04T14:34:39.162Z,11.40
2022-11-04T14:37:25.320Z,11.32
2022-11-04T14:40:00.553Z,11.29
2022-11-04T14:42:55.770Z,11.03
2022-11-04T14:45:29.238Z,11.23
2022-11-04T14:48:16.144Z,11.09
2022-11-04T14:50:49.718Z,11.11
2022-11-04T14:53:23.346Z,10.92
2022-11-04T14:56:19.044Z,11.05
2022-11-04T14:59:07.170Z,11.10
2022-11-04T15:01:41.557Z,10.92
2022-11-04T15:04:21.278Z,10.70
2022-11-04T15:06:58.986Z,10.76
2022-11-04T15:09:38.253Z,10.75
2022-11-04T15:12:29.538Z,10.61
2022-11-04T15:15:01.063Z,10.70
2022-11-04T15:17:34.193Z,10.68
2022-11-04T15:20:05.092Z,10.68
2022-11-04T15:22:36.207Z,10.58
2022-11-04T15:25:08.485Z,10.60
2022-11-04T15:27:38.886Z,10.80
2022-11-04T15:30:21.650Z,10.68
2022-11-04T15:33:03.745Z,10.64
2022-11-04T15:35:34.891Z,10.62
2022-11-04T15:38:05.476Z,10.62
2022-11-04T15:40:36.007Z,10.94
2022-11-04T15:43:08.000Z,10.68
2022-11-04T15:45:41.711Z,10.64
2022-11-04T15:51:17.184Z,10.58
2022-11-04T15:53:54.706Z,10.54
2022-11-04T15:56:28.395Z,10.55
2022-11-04T15:59:01.284Z,10.54
2022-11-04T16:01:32.870Z,10.64
2022-11-04T16:04:03.416Z,10.73
2022-11-04T16:06:45.106Z,10.82
2022-11-04T16:09:19.063Z,10.77
2022-11-04T16:12:10.535Z,10.68
2022-11-04T16:14:49.518Z,10.69
2022-11-04T16:17:21.428Z,10.64
2022-11-04T16:19:54.996Z,10.64
2022-11-04T16:22:35.332Z,10.56
2022-11-04T16:25:10.092Z,10.64
2022-11-04T16:27:41.608Z,10.67
2022-11-04T16:30:24.206Z,10.54
2022-11-04T16:32:57.162Z,10.47
2022-11-04T16:35:29.564Z,10.68
2022-11-04T16:38:02.272Z,10.46
2022-11-04T16:40:34.188Z,10.46
2022-11-04T16:43:04.561Z,10.44
2022-11-04T16:45:37.018Z,10.46
2022-11-04T16:48:08.124Z,10.58
2022-11-04T16:50:38.435Z,10.44
2022-11-04T16:53:09.240Z,10.40
2022-11-04T16:55:43.932Z,10.48
2022-11-04T16:58:20.802Z,10.36
2022-11-04T17:00:51.392Z,10.52
2022-11-04T17:03:22.301Z,10.55
2022-11-04T17:05:56.266Z,10.46
2022-11-04T17:08:27.731Z,10.44
2022-11-04T17:10:58.216Z,10.43
2022-11-04T17:13:32.101Z,10.46
2022-11-04T17:16:01.049Z,10.42
2022-11-04T17:18:35.520Z,10.46
2022-11-04T17:21:11.824Z,10.33
2022-11-04T17:23:42.220Z,10.33
2022-11-04T17:26:14.289Z,10.76
2022-11-04T17:28:44.742Z,10.51
2022-11-04T17:31:18.193Z,10.60
2022-11-04T17:33:49.002Z,10.42
2022-11-04T17:36:20.700Z,10.30
2022-11-04T17:38:51.108Z,10.36
2022-11-04T17:41:39.634Z,10.32
2022-11-04T17:44:10.032Z,10.24
2022-11-04T17:46:45.207Z,10.23
2022-11-04T17:49:23.793Z,10.48
2022-11-04T17:51:57.191Z,10.25
2022-11-04T17:54:31.183Z,10.22
2022-11-04T17:57:02.094Z,10.34
2022-11-04T17:59:36.655Z,10.22
2022-11-04T18:02:04.935Z,10.50
2022-11-04T18:04:35.689Z,10.31
2022-11-04T18:07:06.120Z,10.36
2022-11-04T18:09:36.565Z,10.18
2022-11-04T18:12:25.561Z,10.37
2022-11-04T18:14:55.951Z,10.33
2022-11-04T18:17:26.249Z,10.32
2022-11-04T18:19:56.863Z,10.27
2022-11-04T18:22:28.220Z,10.28
2022-11-04T18:24:58.685Z,10.24
2022-11-04T18:27:29.115Z,10.26
2022-11-04T18:29:59.519Z,10.26
2022-11-04T18:32:29.949Z,10.43
2022-11-04T18:35:00.382Z,10.22
2022-11-04T18:37:30.783Z,10.26
2022-11-04T18:40:01.340Z,10.14
2022-11-04T18:42:31.896Z,10.21
2022-11-04T18:45:02.272Z,10.22
2022-11-04T18:47:33.656Z,10.28
2022-11-04T18:50:04.252Z,10.19
2022-11-04T18:52:34.580Z,10.13
2022-11-04T18:55:05.285Z,10.28
2022-11-04T18:57:36.100Z,10.29
2022-11-04T19:00:09.628Z,10.18
2022-11-04T19:02:39.659Z,10.08
2022-11-04T19:05:10.907Z,10.15
2022-11-04T19:07:41.958Z,10.21
2022-11-04T19:10:13.451Z,10.08
2022-11-04T19:12:48.709Z,10.09
2022-11-04T19:15:19.451Z,10.04
2022-11-04T19:17:50.482Z,10.06
2022-11-04T19:20:20.922Z,10.14
2022-11-04T19:22:51.293Z,10.18
2022-11-04T19:25:21.819Z,10.12
2022-11-04T19:28:11.457Z,10.18
2022-11-04T19:30:24.756Z,10.21
2022-11-04T19:32:55.181Z,10.16
2022-11-04T19:35:25.767Z,10.17
2022-11-04T19:37:56.632Z,10.08
2022-11-04T19:40:27.021Z,10.20
2022-11-04T19:43:09.356Z,10.20
2022-11-04T19:45:45.538Z,10.19
2022-11-04T19:48:17.977Z,10.16
2022-11-04T19:50:50.002Z,10.14
2022-11-04T19:53:20.884Z,10.06
2022-11-04T19:55:53.758Z,10.10
2022-11-04T19:58:24.109Z,10.15
2022-11-04T20:00:54.526Z,10.22
2022-11-04T20:03:25.076Z,10.18
2022-11-04T20:05:55.503Z,10.29
2022-11-04T20:08:25.772Z,10.17
2022-11-04T20:10:56.796Z,10.11
2022-11-04T20:13:46.370Z,10.20
2022-11-04T20:16:25.719Z,10.17
2022-11-04T20:19:00.675Z,10.16
2022-11-04T20:21:34.403Z,10.20
2022-11-04T20:24:07.622Z,10.08
2022-11-04T20:26:39.746Z,10.14
2022-11-04T20:29:11.041Z,10.20
2022-11-04T20:31:41.425Z,10.22
2022-11-04T20:34:13.711Z,10.11
2022-11-04T20:36:44.169Z,10.11
2022-11-04T20:39:21.880Z,10.17
2022-11-04T20:41:52.360Z,10.12
2022-11-04T20:44:22.717Z,10.16
2022-11-04T20:46:53.168Z,10.14
2022-11-04T20:49:23.590Z,10.14
2022-11-04T20:51:55.782Z,10.08
2022-11-04T20:54:26.722Z,10.05
2022-11-04T20:56:57.359Z,10.30
2022-11-04T20:59:27.810Z,10.04
2022-11-04T21:01:59.011Z,9.98
2022-11-04T21:04:34.833Z,9.98
2022-11-04T21:07:02.740Z,10.04
2022-11-04T21:09:33.387Z,10.10
2022-11-04T21:12:04.041Z,10.01
2022-11-04T21:14:35.254Z,10.16
2022-11-04T21:17:06.552Z,10.27
2022-11-04T21:19:36.944Z,10.18
2022-11-04T21:22:07.365Z,10.17
2022-11-04T21:24:39.410Z,10.14
2022-11-04T21:27:09.731Z,10.11
2022-11-04T21:29:40.215Z,10.03
2022-11-04T21:32:10.621Z,10.04
2022-11-04T21:34:41.029Z,9.94
2022-11-04T21:37:11.384Z,9.92
2022-11-04T21:39:42.674Z,9.96
2022-11-04T21:42:13.230Z,9.89
2022-11-04T21:44:43.717Z,9.89
2022-11-04T21:47:14.341Z,9.92
2022-11-04T21:49:44.738Z,9.86
2022-11-04T21:52:15.214Z,9.90
2022-11-04T21:54:45.641Z,9.92
2022-11-04T21:57:17.049Z,10.03
2022-11-04T21:59:47.537Z,9.82
2022-11-04T22:02:18.118Z,9.70
2022-11-04T22:04:48.478Z,9.80
2022-11-04T22:07:20.622Z,9.99
2022-11-04T22:09:51.019Z,9.80
2022-11-04T22:12:21.339Z,9.75
2022-11-04T22:14:51.667Z,9.72
2022-11-04T22:17:21.956Z,9.80
2022-11-04T22:19:52.675Z,9.70
2022-11-04T22:22:23.057Z,9.64
2022-11-04T22:25:06.964Z,9.60
2022-11-04T22:27:37.359Z,9.50
2022-11-04T22:30:10.236Z,9.44
2022-11-04T22:32:40.745Z,9.45
2022-11-04T22:35:11.197Z,9.40
2022-11-04T22:37:41.586Z,9.42
2022-11-04T22:40:12.810Z,9.46
2022-11-04T22:42:43.676Z,9.46
2022-11-04T22:45:16.821Z,9.29
2022-11-04T22:47:48.784Z,9.46
2022-11-04T22:50:19.133Z,9.42
2022-11-04T22:52:49.604Z,9.46
2022-11-04T22:55:19.969Z,9.54
2022-11-04T22:57:50.421Z,9.60
2022-11-04T23:00:21.042Z,9.52
2022-11-04T23:02:52.471Z,9.56
2022-11-04T23:05:23.064Z,9.44
2022-11-04T23:07:53.561Z,9.46
2022-11-04T23:10:41.781Z,9.64
2022-11-04T23:13:30.208Z,9.58
2022-11-04T23:16:19.164Z,9.45
2022-11-04T23:18:52.190Z,9.46
2022-11-04T23:21:41.498Z,9.73
2022-11-04T23:24:29.736Z,9.75
2022-11-04T23:27:00.453Z,9.80
2022-11-04T23:29:48.662Z,9.70
2022-11-04T23:32:23.132Z,9.70
2022-11-04T23:34:55.829Z,9.62
2022-11-04T23:37:26.221Z,9.58
2022-11-04T23:39:56.572Z,9.57
2022-11-04T23:42:27.052Z,9.61
2022-11-04T23:45:15.635Z,9.74
2022-11-04T23:48:06.546Z,9.68
2022-11-04T23:50:55.017Z,9.64
2022-11-04T23:53:43.487Z,9.72
2022-11-04T23:56:32.403Z,9.56
2022-11-04T23:59:21.011Z,9.76
